createdAt,value
2017-10-19T00:01:10.601Z,81.97
2017-10-19T00:03:38.259Z,82.14
2017-10-19T00:06:05.883Z,82.31
2017-10-19T00:08:33.482Z,82.38
2017-10-19T00:11:01.111Z,82.75
2017-10-19T00:13:28.717Z,82.55
2017-10-19T00:15:56.342Z,82.57
2017-10-19T00:18:23.933Z,82.75
2017-10-19T00:20:51.594Z,82.65
2017-10-19T00:23:19.194Z,82.75
2017-10-19T00:25:46.822Z,82.60
2017-10-19T00:28:14.418Z,82.49
2017-10-19T00:30:42.056Z,82.13
2017-10-19T00:33:09.729Z,82.51
2017-10-19T00:35:37.349Z,82.81
2017-10-19T00:38:04.919Z,82.56
2017-10-19T00:40:32.559Z,82.73
2017-10-19T00:43:00.164Z,82.71
2017-10-19T00:45:27.798Z,82.70
2017-10-19T00:47:55.423Z,82.91
2017-10-19T00:50:23.066Z,83.07
2017-10-19T00:52:50.684Z,83.10
2017-10-19T00:55:18.306Z,83.24
2017-10-19T00:57:45.930Z,83.28
2017-10-19T01:00:13.587Z,83.37
2017-10-19T01:02:41.188Z,83.43
2017-10-19T01:05:08.795Z,83.31
2017-10-19T01:07:36.434Z,83.42
2017-10-19T01:10:04.090Z,83.52
2017-10-19T01:12:31.700Z,83.46
2017-10-19T01:14:59.465Z,83.49
2017-10-19T01:17:27.132Z,83.47
2017-10-19T01:19:54.750Z,83.78
2017-10-19T01:22:22.382Z,83.66
2017-10-19T01:24:49.975Z,83.50
2017-10-19T01:27:17.586Z,83.84
2017-10-19T01:29:45.195Z,84.02
2017-10-19T01:32:12.823Z,84.13
2017-10-19T01:34:40.411Z,83.87
2017-10-19T01:37:08.040Z,84.00
2017-10-19T01:39:35.623Z,84.04
2017-10-19T01:42:03.264Z,84.06
2017-10-19T01:44:30.850Z,84.07
2017-10-19T01:46:58.467Z,83.99
2017-10-19T01:49:26.071Z,83.88
2017-10-19T01:51:53.711Z,84.02
2017-10-19T01:54:21.349Z,83.98
2017-10-19T01:56:48.967Z,84.15
2017-10-19T01:59:16.565Z,84.21
2017-10-19T02:01:44.210Z,84.18
2017-10-19T02:04:11.888Z,84.10
2017-10-19T02:06:39.507Z,83.89
2017-10-19T02:09:07.146Z,84.08
2017-10-19T02:11:34.784Z,84.20
2017-10-19T02:14:02.392Z,84.36
2017-10-19T02:16:30.016Z,84.38
2017-10-19T02:18:57.617Z,84.27
2017-10-19T02:21:25.258Z,84.42
2017-10-19T02:23:52.850Z,84.72
2017-10-19T02:26:20.499Z,84.70
2017-10-19T02:28:48.099Z,84.59
2017-10-19T02:31:15.810Z,84.67
2017-10-19T02:33:43.459Z,84.34
2017-10-19T02:36:11.121Z,84.32
2017-10-19T02:38:38.755Z,84.22
2017-10-19T02:41:06.367Z,84.14
2017-10-19T02:43:34.008Z,84.09
2017-10-19T02:46:01.608Z,84.35
2017-10-19T02:48:29.243Z,84.33
2017-10-19T02:50:56.874Z,84.38
2017-10-19T02:53:24.520Z,84.55
2017-10-19T02:55:52.112Z,84.89
2017-10-19T02:58:19.779Z,85.00
2017-10-19T03:00:47.374Z,85.16
2017-10-19T03:03:15.007Z,85.25
2017-10-19T03:05:42.616Z,84.98
2017-10-19T03:08:10.255Z,85.13
2017-10-19T03:10:37.855Z,85.39
2017-10-19T03:13:05.506Z,85.54
2017-10-19T03:15:33.115Z,85.68
2017-10-19T03:18:00.759Z,85.94
2017-10-19T03:20:28.379Z,86.15
2017-10-19T03:22:55.994Z,86.08
2017-10-19T03:25:23.618Z,85.86
2017-10-19T03:27:51.296Z,85.88
2017-10-19T03:30:18.921Z,85.69
2017-10-19T03:32:46.510Z,85.57
2017-10-19T03:35:14.135Z,85.66
2017-10-19T03:37:41.749Z,85.54
2017-10-19T03:40:09.378Z,85.54
2017-10-19T03:42:37.076Z,85.69
2017-10-19T03:45:04.722Z,85.43
2017-10-19T03:47:32.299Z,85.30
2017-10-19T03:49:59.934Z,85.17
2017-10-19T03:52:27.577Z,85.24
2017-10-19T03:54:55.222Z,85.49
2017-10-19T03:57:22.826Z,85.41
2017-10-19T03:59:50.452Z,85.05
2017-10-19T04:02:18.038Z,84.69
2017-10-19T04:04:45.675Z,85.14
2017-10-19T04:07:13.271Z,85.30
2017-10-19T04:09:40.962Z,85.24
2017-10-19T04:12:08.572Z,84.92
2017-10-19T04:14:36.327Z,84.43
2017-10-19T04:17:03.942Z,84.38
2017-10-19T04:19:31.543Z,84.44
2017-10-19T04:21:59.187Z,84.52
2017-10-19T04:24:26.824Z,84.77
2017-10-19T04:26:54.459Z,84.37
2017-10-19T04:29:22.834Z,84.52
2017-10-19T04:31:50.522Z,84.59
2017-10-19T04:34:18.127Z,84.49
2017-10-19T04:36:45.784Z,84.47
2017-10-19T04:39:13.409Z,84.19
2017-10-19T04:41:41.012Z,84.71
2017-10-19T04:44:08.649Z,85.44
2017-10-19T04:46:36.283Z,86.02
2017-10-19T04:49:03.926Z,86.08
2017-10-19T04:51:31.548Z,85.79
2017-10-19T04:53:59.206Z,86.15
2017-10-19T04:56:26.831Z,86.59
2017-10-19T04:58:54.466Z,86.56
2017-10-19T05:01:22.067Z,86.26
2017-10-19T05:03:49.701Z,85.99
2017-10-19T05:06:17.306Z,85.70
2017-10-19T05:08:44.930Z,85.44
2017-10-19T05:11:12.536Z,85.59
2017-10-19T05:13:40.330Z,86.00
2017-10-19T05:16:07.918Z,86.08
2017-10-19T05:18:35.538Z,85.90
2017-10-19T05:21:03.208Z,85.81
2017-10-19T05:23:30.852Z,86.21
2017-10-19T05:25:58.505Z,85.81
2017-10-19T05:28:26.123Z,86.01
2017-10-19T05:30:53.778Z,86.33
2017-10-19T05:33:21.394Z,86.49
2017-10-19T05:35:49.031Z,86.25
2017-10-19T05:38:16.621Z,86.40
2017-10-19T05:40:44.263Z,86.94
2017-10-19T05:43:11.872Z,86.90
2017-10-19T05:45:39.504Z,86.77
2017-10-19T05:48:07.126Z,86.56
2017-10-19T05:50:34.855Z,86.22
2017-10-19T05:53:02.470Z,85.97
2017-10-19T05:55:30.199Z,85.71
2017-10-19T05:57:57.807Z,85.75
2017-10-19T06:00:25.435Z,85.42
2017-10-19T06:02:53.028Z,85.48
2017-10-19T06:05:20.742Z,85.99
2017-10-19T06:07:48.362Z,86.36
2017-10-19T06:10:15.994Z,86.35
2017-10-19T06:12:43.594Z,86.96
2017-10-19T06:15:11.311Z,87.48
2017-10-19T06:17:38.918Z,87.57
2017-10-19T06:20:06.563Z,87.61
2017-10-19T06:22:34.182Z,87.66
2017-10-19T06:25:01.808Z,87.86
2017-10-19T06:27:29.419Z,88.02
2017-10-19T06:29:57.064Z,88.31
2017-10-19T06:32:24.658Z,88.37
2017-10-19T06:34:52.295Z,88.20
2017-10-19T06:37:19.892Z,87.98
2017-10-19T06:39:47.537Z,87.93
2017-10-19T06:42:15.127Z,88.26
2017-10-19T06:44:42.783Z,88.59
2017-10-19T06:47:10.416Z,88.73
2017-10-19T06:49:38.099Z,88.83
2017-10-19T06:52:05.707Z,88.61
2017-10-19T06:54:33.337Z,88.51
2017-10-19T06:57:00.944Z,88.51
2017-10-19T06:59:28.538Z,88.57
2017-10-19T07:01:56.174Z,88.43
2017-10-19T07:04:23.775Z,88.51
2017-10-19T07:06:51.429Z,88.41
2017-10-19T07:09:19.031Z,88.24
2017-10-19T07:11:46.676Z,88.22
2017-10-19T07:14:14.267Z,88.86
2017-10-19T07:16:41.907Z,89.23
2017-10-19T07:19:09.491Z,89.18
2017-10-19T07:21:37.122Z,89.00
2017-10-19T07:24:04.798Z,88.86
2017-10-19T07:26:32.431Z,88.62
2017-10-19T07:29:00.046Z,89.04
2017-10-19T07:31:27.670Z,89.50
2017-10-19T07:33:55.268Z,89.88
2017-10-19T07:36:22.895Z,90.18
2017-10-19T07:38:50.528Z,90.17
2017-10-19T07:41:18.186Z,89.96
2017-10-19T07:43:45.791Z,90.26
2017-10-19T07:46:13.483Z,89.94
2017-10-19T07:48:41.089Z,90.07
2017-10-19T07:51:08.690Z,89.88
2017-10-19T07:53:36.339Z,88.98
2017-10-19T07:56:03.939Z,88.85
2017-10-19T07:58:31.584Z,88.82
2017-10-19T08:00:59.204Z,88.51
2017-10-19T08:03:26.844Z,88.08
2017-10-19T08:05:54.451Z,87.63
2017-10-19T08:08:22.092Z,87.40
2017-10-19T08:10:49.709Z,87.15
2017-10-19T08:13:17.334Z,86.62
2017-10-19T08:15:44.970Z,86.47
2017-10-19T08:18:12.605Z,86.37
2017-10-19T08:20:40.203Z,86.48
2017-10-19T08:23:07.838Z,86.27
2017-10-19T08:25:35.464Z,85.78
2017-10-19T08:28:03.145Z,85.32
2017-10-19T08:30:30.774Z,85.16
2017-10-19T08:32:58.427Z,84.62
2017-10-19T08:35:26.074Z,84.19
2017-10-19T08:37:53.743Z,83.84
2017-10-19T08:40:21.403Z,83.47
2017-10-19T08:42:49.079Z,83.80
2017-10-19T08:45:16.682Z,83.56
2017-10-19T08:47:44.335Z,83.90
2017-10-19T08:50:11.959Z,83.66
2017-10-19T08:52:39.614Z,83.24
2017-10-19T08:55:07.787Z,83.57
2017-10-19T08:57:35.427Z,82.92
2017-10-19T09:00:03.055Z,82.10
2017-10-19T09:02:30.744Z,82.09
2017-10-19T09:04:58.372Z,82.04
2017-10-19T09:07:26.021Z,81.77
2017-10-19T09:09:53.631Z,81.45
2017-10-19T09:12:21.277Z,80.71
2017-10-19T09:14:48.903Z,80.50
2017-10-19T09:17:16.564Z,79.85
2017-10-19T09:19:44.174Z,79.23
2017-10-19T09:22:11.823Z,79.12
2017-10-19T09:24:39.428Z,79.35
2017-10-19T09:27:07.068Z,78.64
2017-10-19T09:29:34.679Z,78.42
2017-10-19T09:32:02.353Z,77.42
2017-10-19T09:34:29.971Z,76.92
2017-10-19T09:36:57.633Z,76.00
2017-10-19T09:39:25.243Z,75.25
2017-10-19T09:41:52.870Z,74.72
2017-10-19T09:44:20.486Z,74.39
2017-10-19T09:46:48.160Z,73.18
2017-10-19T09:49:15.756Z,72.75
2017-10-19T09:51:43.447Z,73.40
2017-10-19T09:54:11.207Z,72.17
2017-10-19T09:56:38.887Z,72.41
2017-10-19T09:59:06.539Z,72.33
2017-10-19T10:01:34.159Z,71.26
2017-10-19T10:04:01.791Z,71.34
2017-10-19T10:06:29.422Z,71.15
2017-10-19T10:08:57.063Z,70.85
2017-10-19T10:11:24.686Z,69.61
2017-10-19T10:13:52.295Z,68.90
2017-10-19T10:16:19.907Z,68.84
2017-10-19T10:18:47.543Z,68.61
2017-10-19T10:21:15.148Z,68.20
2017-10-19T10:23:42.775Z,67.39
2017-10-19T10:26:10.433Z,67.68
2017-10-19T10:28:38.069Z,67.26
2017-10-19T10:31:05.675Z,67.26
2017-10-19T10:33:33.349Z,67.23
2017-10-19T10:36:01.065Z,67.16
2017-10-19T10:38:28.731Z,66.20
2017-10-19T10:40:56.346Z,66.19
2017-10-19T10:43:24.014Z,65.11
2017-10-19T10:45:51.618Z,65.12
2017-10-19T10:48:19.240Z,64.15
2017-10-19T10:50:46.871Z,64.62
2017-10-19T10:53:14.511Z,63.16
2017-10-19T10:55:43.752Z,63.33
2017-10-19T10:58:11.443Z,63.51
2017-10-19T11:00:39.059Z,62.99
2017-10-19T11:03:06.693Z,63.09
2017-10-19T11:05:34.299Z,62.78
2017-10-19T11:08:01.927Z,62.29
2017-10-19T11:10:29.531Z,62.08
2017-10-19T11:12:57.175Z,61.79
2017-10-19T11:15:24.785Z,61.55
2017-10-19T11:17:52.526Z,61.03
2017-10-19T11:20:20.140Z,60.63
2017-10-19T11:22:47.768Z,59.28
2017-10-19T11:25:15.411Z,59.42
2017-10-19T11:27:43.026Z,59.30
2017-10-19T11:30:10.703Z,59.82
2017-10-19T11:32:38.311Z,59.65
2017-10-19T11:35:05.953Z,60.83
2017-10-19T11:37:33.584Z,60.63
2017-10-19T11:40:01.225Z,60.48
2017-10-19T11:42:28.836Z,59.35
2017-10-19T11:44:56.576Z,58.34
2017-10-19T11:47:24.189Z,57.77
2017-10-19T11:49:51.820Z,58.78
2017-10-19T11:52:19.507Z,58.78
2017-10-19T11:54:47.165Z,58.70
2017-10-19T11:57:14.829Z,58.56
2017-10-19T11:59:42.510Z,58.18
2017-10-19T12:02:10.148Z,58.50
2017-10-19T12:04:37.800Z,58.83
2017-10-19T12:07:05.409Z,59.17
2017-10-19T12:09:33.052Z,58.80
2017-10-19T12:12:00.678Z,58.48
2017-10-19T12:14:28.384Z,58.66
2017-10-19T12:16:56.011Z,58.52
2017-10-19T12:19:23.663Z,59.18
2017-10-19T12:21:51.280Z,57.98
2017-10-19T12:24:18.943Z,57.54
2017-10-19T12:26:46.564Z,57.43
2017-10-19T12:29:14.217Z,58.31
2017-10-19T12:31:41.841Z,59.15
2017-10-19T12:34:09.490Z,59.14
2017-10-19T12:36:37.137Z,57.54
2017-10-19T12:39:04.782Z,58.00
2017-10-19T12:41:32.386Z,57.56
2017-10-19T12:44:00.026Z,58.38
2017-10-19T12:46:27.647Z,58.12
2017-10-19T12:48:55.290Z,58.74
2017-10-19T12:51:22.935Z,59.09
2017-10-19T12:53:50.637Z,58.67
2017-10-19T12:56:18.260Z,58.38
2017-10-19T12:58:45.896Z,58.69
2017-10-19T13:01:13.533Z,57.85
2017-10-19T13:03:41.148Z,58.57
2017-10-19T13:06:08.823Z,58.18
2017-10-19T13:08:36.434Z,58.42
2017-10-19T13:11:04.092Z,58.78
2017-10-19T13:13:31.719Z,59.05
2017-10-19T13:15:59.357Z,58.59
2017-10-19T13:18:26.964Z,58.63
2017-10-19T13:20:54.603Z,58.92
2017-10-19T13:23:22.225Z,59.26
2017-10-19T13:25:49.869Z,59.51
2017-10-19T13:28:17.504Z,59.87
2017-10-19T13:30:45.167Z,60.27
2017-10-19T13:33:12.772Z,60.35
2017-10-19T13:35:40.589Z,60.61
2017-10-19T13:38:08.207Z,61.37
2017-10-19T13:40:35.881Z,61.31
2017-10-19T13:43:03.507Z,60.85
2017-10-19T13:45:31.174Z,60.69
2017-10-19T13:47:58.777Z,60.63
2017-10-19T13:50:26.440Z,61.21
2017-10-19T13:52:54.105Z,60.06
2017-10-19T13:55:21.808Z,60.30
2017-10-19T13:57:49.502Z,60.03
2017-10-19T14:00:17.152Z,59.71
2017-10-19T14:02:44.767Z,60.37
2017-10-19T14:05:12.547Z,59.89
2017-10-19T14:07:40.155Z,59.75
2017-10-19T14:10:07.827Z,59.89
2017-10-19T14:12:35.453Z,58.98
2017-10-19T14:15:03.096Z,59.59
2017-10-19T14:17:30.732Z,59.92
2017-10-19T14:19:58.415Z,59.05
2017-10-19T14:22:26.081Z,59.06
2017-10-19T14:24:53.740Z,58.49
2017-10-19T14:27:21.340Z,58.77
2017-10-19T14:29:49.000Z,58.20
2017-10-19T14:32:16.640Z,58.78
2017-10-19T14:34:44.380Z,59.07
2017-10-19T14:37:12.004Z,59.37
2017-10-19T14:39:39.670Z,59.37
2017-10-19T14:42:07.345Z,59.87
2017-10-19T14:44:34.969Z,60.45
2017-10-19T14:47:02.630Z,60.44
2017-10-19T14:49:30.235Z,61.06
2017-10-19T14:51:57.884Z,61.05
2017-10-19T14:54:25.512Z,61.22
2017-10-19T14:56:53.165Z,61.16
2017-10-19T14:59:20.812Z,61.27
2017-10-19T15:01:48.488Z,61.36
2017-10-19T15:04:16.104Z,61.92
2017-10-19T15:06:43.757Z,62.25
2017-10-19T15:09:11.378Z,62.49
2017-10-19T15:11:39.125Z,62.37
2017-10-19T15:14:06.745Z,62.83
2017-10-19T15:16:34.406Z,63.42
2017-10-19T15:19:02.033Z,63.10
2017-10-19T15:21:29.756Z,63.38
2017-10-19T15:23:57.388Z,63.84
2017-10-19T15:26:25.055Z,64.29
2017-10-19T15:28:52.711Z,64.10
2017-10-19T15:31:20.372Z,64.51
2017-10-19T15:33:47.996Z,65.00
2017-10-19T15:36:15.640Z,65.12
2017-10-19T15:38:43.242Z,65.11
2017-10-19T15:41:10.920Z,65.53
2017-10-19T15:43:38.555Z,65.57
2017-10-19T15:46:06.197Z,66.14
2017-10-19T15:48:33.843Z,66.18
2017-10-19T15:51:13.252Z,66.27
2017-10-19T15:53:40.871Z,66.68
2017-10-19T15:56:08.555Z,66.69
2017-10-19T15:58:36.204Z,67.11
2017-10-19T16:01:04.396Z,67.28
2017-10-19T16:03:32.093Z,67.70
2017-10-19T16:05:59.704Z,68.01
2017-10-19T16:08:27.417Z,68.32
2017-10-19T16:10:55.029Z,68.66
2017-10-19T16:13:22.664Z,68.74
2017-10-19T16:15:50.273Z,68.70
2017-10-19T16:18:17.923Z,68.74
2017-10-19T16:20:45.523Z,69.13
2017-10-19T16:23:13.164Z,69.54
2017-10-19T16:25:40.788Z,69.88
2017-10-19T16:28:08.428Z,70.12
2017-10-19T16:30:36.148Z,70.35
2017-10-19T16:33:03.892Z,70.48
2017-10-19T16:35:31.514Z,70.61
2017-10-19T16:37:59.145Z,70.94
2017-10-19T16:40:26.759Z,71.02
2017-10-19T16:42:54.394Z,71.27
2017-10-19T16:45:22.087Z,71.53
2017-10-19T16:47:49.725Z,71.34
2017-10-19T16:50:17.349Z,71.09
2017-10-19T16:52:44.987Z,71.09
2017-10-19T16:55:12.620Z,71.30
2017-10-19T16:57:40.287Z,71.24
2017-10-19T17:00:07.880Z,71.26
2017-10-19T17:02:35.544Z,71.41
2017-10-19T17:05:03.152Z,71.50
2017-10-19T17:07:30.878Z,71.70
2017-10-19T17:09:58.487Z,71.88
2017-10-19T17:12:26.187Z,72.26
2017-10-19T17:14:53.812Z,72.47
2017-10-19T17:17:21.480Z,72.75
2017-10-19T17:19:49.108Z,73.03
2017-10-19T17:22:16.765Z,73.07
2017-10-19T17:24:44.367Z,73.17
2017-10-19T17:27:12.029Z,73.26
2017-10-19T17:29:39.639Z,73.60
2017-10-19T17:32:07.281Z,73.74
2017-10-19T17:34:34.900Z,73.97
2017-10-19T17:37:02.555Z,74.06
2017-10-19T17:39:30.244Z,74.30
2017-10-19T17:41:57.899Z,74.66
2017-10-19T17:44:25.547Z,74.80
2017-10-19T17:46:53.163Z,75.00
2017-10-19T17:49:20.849Z,74.94
2017-10-19T17:51:48.501Z,74.99
2017-10-19T17:54:16.158Z,75.03
2017-10-19T17:56:43.832Z,75.06
2017-10-19T17:59:13.490Z,74.97
2017-10-19T18:01:41.134Z,74.94
2017-10-19T18:04:08.801Z,74.60
2017-10-19T18:06:36.617Z,74.55
2017-10-19T18:09:04.272Z,74.55
2017-10-19T18:11:31.939Z,74.61
2017-10-19T18:13:59.611Z,74.54
2017-10-19T18:16:27.220Z,74.47
2017-10-19T18:18:54.997Z,74.16
2017-10-19T18:21:22.619Z,74.05
2017-10-19T18:23:50.331Z,74.15
2017-10-19T18:26:17.930Z,74.08
2017-10-19T18:28:45.552Z,73.97
2017-10-19T18:31:13.184Z,73.82
2017-10-19T18:33:40.798Z,74.12
2017-10-19T18:36:08.452Z,74.36
2017-10-19T18:38:36.160Z,74.55
2017-10-19T18:41:03.791Z,74.47
2017-10-19T18:43:31.391Z,74.58
2017-10-19T18:45:59.052Z,74.46
2017-10-19T18:48:26.670Z,74.36
2017-10-19T18:50:54.264Z,74.30
2017-10-19T18:53:21.877Z,74.42
2017-10-19T18:55:49.672Z,74.58
2017-10-19T18:58:17.262Z,74.40
2017-10-19T19:00:44.923Z,74.26
2017-10-19T19:03:12.539Z,74.21
2017-10-19T19:05:40.192Z,74.27
2017-10-19T19:08:07.809Z,74.51
2017-10-19T19:10:35.477Z,74.51
2017-10-19T19:13:03.090Z,74.60
2017-10-19T19:15:30.870Z,74.72
2017-10-19T19:17:58.468Z,74.67
2017-10-19T19:20:26.168Z,74.81
2017-10-19T19:22:53.799Z,74.85
2017-10-19T19:25:21.436Z,75.07
2017-10-19T19:27:49.140Z,75.34
2017-10-19T19:30:16.795Z,75.50
2017-10-19T19:32:44.435Z,75.77
2017-10-19T19:35:12.290Z,75.99
2017-10-19T19:37:39.921Z,76.03
2017-10-19T19:40:07.551Z,76.31
2017-10-19T19:42:35.155Z,76.34
2017-10-19T19:45:02.898Z,76.40
2017-10-19T19:47:30.523Z,76.29
2017-10-19T19:49:58.172Z,76.15
2017-10-19T19:52:25.775Z,76.30
2017-10-19T19:54:53.427Z,76.38
2017-10-19T19:57:21.002Z,76.49
2017-10-19T19:59:48.658Z,76.44
2017-10-19T20:02:16.387Z,76.46
2017-10-19T20:04:44.056Z,76.69
2017-10-19T20:07:11.666Z,76.62
2017-10-19T20:09:39.287Z,76.70
2017-10-19T20:12:06.883Z,76.92
2017-10-19T20:14:34.552Z,76.88
2017-10-19T20:17:02.163Z,77.20
2017-10-19T20:19:29.807Z,77.45
2017-10-19T20:21:57.439Z,77.59
2017-10-19T20:24:25.062Z,77.65
2017-10-19T20:26:52.665Z,77.73
2017-10-19T20:29:20.316Z,77.81
2017-10-19T20:31:47.910Z,77.85
2017-10-19T20:34:15.544Z,78.08
2017-10-19T20:36:43.156Z,78.20
2017-10-19T20:39:10.822Z,78.24
2017-10-19T20:41:38.449Z,78.15
2017-10-19T20:44:06.264Z,78.20
2017-10-19T20:46:33.908Z,78.45
2017-10-19T20:49:01.573Z,78.39
2017-10-19T20:51:30.257Z,78.39
2017-10-19T20:53:57.889Z,78.68
2017-10-19T20:56:25.491Z,78.94
2017-10-19T20:58:53.142Z,78.93
2017-10-19T21:01:20.754Z,78.95
2017-10-19T21:03:48.399Z,79.06
2017-10-19T21:06:16.027Z,79.04
2017-10-19T21:08:43.662Z,78.98
2017-10-19T21:11:11.284Z,79.11
2017-10-19T21:13:38.923Z,79.03
2017-10-19T21:16:06.559Z,79.27
2017-10-19T21:18:34.203Z,79.35
2017-10-19T21:21:01.829Z,79.30
2017-10-19T21:23:29.459Z,79.24
2017-10-19T21:25:57.075Z,79.23
2017-10-19T21:28:24.754Z,79.35
2017-10-19T21:30:52.375Z,79.35
2017-10-19T21:33:20.083Z,79.16
2017-10-19T21:35:47.696Z,79.22
2017-10-19T21:38:15.327Z,79.11
2017-10-19T21:40:42.960Z,79.06
2017-10-19T21:43:10.594Z,79.06
2017-10-19T21:45:38.189Z,79.07
2017-10-19T21:48:05.841Z,79.25
2017-10-19T21:50:33.439Z,79.21
2017-10-19T21:53:01.071Z,79.11
2017-10-19T21:55:28.665Z,79.19
2017-10-19T21:57:56.310Z,79.09
2017-10-19T22:00:23.932Z,79.14
2017-10-19T22:02:51.586Z,78.96
2017-10-19T22:05:20.053Z,78.87
2017-10-19T22:07:47.687Z,78.79
2017-10-19T22:10:15.282Z,78.45
2017-10-19T22:12:42.938Z,78.22
2017-10-19T22:15:10.550Z,78.35
2017-10-19T22:17:38.134Z,78.41
2017-10-19T22:20:05.768Z,78.36
2017-10-19T22:22:33.375Z,78.28
2017-10-19T22:25:01.031Z,78.06
2017-10-19T22:27:28.637Z,78.03
2017-10-19T22:29:56.404Z,77.86
2017-10-19T22:32:24.004Z,77.72
2017-10-19T22:34:51.646Z,77.56
2017-10-19T22:37:19.290Z,77.36
2017-10-19T22:39:46.914Z,77.24
2017-10-19T22:42:14.518Z,77.19
2017-10-19T22:44:42.306Z,76.92
2017-10-19T22:47:10.016Z,76.69
2017-10-19T22:49:37.687Z,76.65
2017-10-19T22:52:05.345Z,76.48
2017-10-19T22:54:33.092Z,76.55
2017-10-19T22:57:00.695Z,76.16
2017-10-19T22:59:28.443Z,76.03
2017-10-19T23:01:56.044Z,75.81
2017-10-19T23:04:23.702Z,75.50
2017-10-19T23:06:51.304Z,74.70
2017-10-19T23:09:18.907Z,74.08
2017-10-19T23:11:46.542Z,73.15
2017-10-19T23:14:14.147Z,73.30
2017-10-19T23:16:41.774Z,72.98
2017-10-19T23:19:09.417Z,72.74
2017-10-19T23:21:37.015Z,72.87
2017-10-19T23:24:04.862Z,72.91
2017-10-19T23:26:32.481Z,72.98
2017-10-19T23:29:00.109Z,72.77
2017-10-19T23:31:27.695Z,72.59
2017-10-19T23:33:55.436Z,72.51
2017-10-19T23:36:23.059Z,72.16
2017-10-19T23:38:50.699Z,71.64
2017-10-19T23:41:18.301Z,71.24
2017-10-19T23:43:45.943Z,70.98
2017-10-19T23:46:13.556Z,70.85
2017-10-19T23:48:41.197Z,70.70
2017-10-19T23:51:08.915Z,70.39
2017-10-19T23:53:36.529Z,70.53
2017-10-19T23:56:04.162Z,70.58
2017-10-19T23:58:31.772Z,70.24
